sensor_id;sensor_type;location;lat;lon;timestamp;P1;durP1;ratioP1;P2;durP2;ratioP2
14516;SDS011;7344;50.864;4.362;2023-02-22T00:01:10;142.23;;;39.47;;
14516;SDS011;7344;50.864;4.362;2023-02-22T00:03:52;78.70;;;33.83;;
14516;SDS011;7344;50.864;4.362;2023-02-22T00:06:18;108.80;;;35.27;;
14516;SDS011;7344;50.864;4.362;2023-02-22T00:08:48;97.73;;;36.03;;
14516;SDS011;7344;50.864;4.362;2023-02-22T00:11:16;107.53;;;36.03;;
14516;SDS011;7344;50.864;4.362;2023-02-22T00:13:42;102.47;;;34.50;;
14516;SDS011;7344;50.864;4.362;2023-02-22T00:16:09;94.47;;;35.40;;
14516;SDS011;7344;50.864;4.362;2023-02-22T00:18:38;107.60;;;37.07;;
14516;SDS011;7344;50.864;4.362;2023-02-22T00:21:08;141.13;;;41.30;;
14516;SDS011;7344;50.864;4.362;2023-02-22T00:23:34;104.97;;;35.13;;
14516;SDS011;7344;50.864;4.362;2023-02-22T00:26:04;97.60;;;31.40;;
14516;SDS011;7344;50.864;4.362;2023-02-22T00:28:33;82.73;;;35.63;;
14516;SDS011;7344;50.864;4.362;2023-02-22T00:31:04;135.60;;;36.27;;
14516;SDS011;7344;50.864;4.362;2023-02-22T00:33:31;115.40;;;37.03;;
14516;SDS011;7344;50.864;4.362;2023-02-22T00:35:57;138.43;;;37.53;;
14516;SDS011;7344;50.864;4.362;2023-02-22T00:38:23;97.57;;;34.57;;
14516;SDS011;7344;50.864;4.362;2023-02-22T00:40:49;117.53;;;40.23;;
14516;SDS011;7344;50.864;4.362;2023-02-22T00:43:14;255.17;;;43.70;;
14516;SDS011;7344;50.864;4.362;2023-02-22T00:45:40;178.37;;;41.07;;
14516;SDS011;7344;50.864;4.362;2023-02-22T00:48:06;129.87;;;38.23;;
14516;SDS011;7344;50.864;4.362;2023-02-22T00:50:32;312.03;;;47.40;;
14516;SDS011;7344;50.864;4.362;2023-02-22T00:53:02;141.80;;;38.20;;
14516;SDS011;7344;50.864;4.362;2023-02-22T00:55:29;120.10;;;36.60;;
14516;SDS011;7344;50.864;4.362;2023-02-22T00:57:56;150.87;;;36.07;;
14516;SDS011;7344;50.864;4.362;2023-02-22T01:00:36;156.67;;;37.93;;
14516;SDS011;7344;50.864;4.362;2023-02-22T01:03:08;193.80;;;38.93;;
14516;SDS011;7344;50.864;4.362;2023-02-22T01:05:35;184.67;;;38.40;;
14516;SDS011;7344;50.864;4.362;2023-02-22T01:08:02;188.47;;;38.20;;
14516;SDS011;7344;50.864;4.362;2023-02-22T01:10:31;333.23;;;45.93;;
14516;SDS011;7344;50.864;4.362;2023-02-22T01:12:57;171.13;;;36.93;;
14516;SDS011;7344;50.864;4.362;2023-02-22T01:15:25;203.93;;;37.60;;
14516;SDS011;7344;50.864;4.362;2023-02-22T01:17:54;410.77;;;46.77;;
14516;SDS011;7344;50.864;4.362;2023-02-22T01:20:22;344.17;;;44.53;;
14516;SDS011;7344;50.864;4.362;2023-02-22T01:22:52;232.73;;;37.67;;
14516;SDS011;7344;50.864;4.362;2023-02-22T01:25:21;190.77;;;36.50;;
14516;SDS011;7344;50.864;4.362;2023-02-22T01:27:49;173.33;;;36.43;;
14516;SDS011;7344;50.864;4.362;2023-02-22T01:30:15;218.83;;;37.50;;
14516;SDS011;7344;50.864;4.362;2023-02-22T01:32:45;186.93;;;36.00;;
14516;SDS011;7344;50.864;4.362;2023-02-22T01:35:12;290.80;;;43.80;;
14516;SDS011;7344;50.864;4.362;2023-02-22T01:37:39;173.40;;;41.57;;
14516;SDS011;7344;50.864;4.362;2023-02-22T01:40:07;160.10;;;38.47;;
14516;SDS011;7344;50.864;4.362;2023-02-22T01:42:35;130.37;;;36.23;;
14516;SDS011;7344;50.864;4.362;2023-02-22T01:47:59;73.37;;;30.30;;
14516;SDS011;7344;50.864;4.362;2023-02-22T01:50:26;77.60;;;31.50;;
14516;SDS011;7344;50.864;4.362;2023-02-22T01:53:03;77.27;;;32.27;;
14516;SDS011;7344;50.864;4.362;2023-02-22T01:55:29;61.80;;;29.13;;
14516;SDS011;7344;50.864;4.362;2023-02-22T01:57:58;59.33;;;29.30;;
14516;SDS011;7344;50.864;4.362;2023-02-22T02:00:24;54.80;;;28.50;;
14516;SDS011;7344;50.864;4.362;2023-02-22T02:02:53;57.10;;;29.00;;
14516;SDS011;7344;50.864;4.362;2023-02-22T02:05:24;57.13;;;29.30;;
14516;SDS011;7344;50.864;4.362;2023-02-22T02:07:51;65.97;;;32.30;;
14516;SDS011;7344;50.864;4.362;2023-02-22T02:10:18;55.40;;;28.63;;
14516;SDS011;7344;50.864;4.362;2023-02-22T02:12:45;60.60;;;29.23;;
14516;SDS011;7344;50.864;4.362;2023-02-22T02:17:56;57.60;;;28.47;;
14516;SDS011;7344;50.864;4.362;2023-02-22T02:37:25;47.83;;;26.97;;
14516;SDS011;7344;50.864;4.362;2023-02-22T02:45:50;42.13;;;24.60;;
14516;SDS011;7344;50.864;4.362;2023-02-22T02:48:26;45.80;;;25.27;;
14516;SDS011;7344;50.864;4.362;2023-02-22T02:50:53;42.50;;;24.37;;
14516;SDS011;7344;50.864;4.362;2023-02-22T02:53:24;41.90;;;25.47;;
14516;SDS011;7344;50.864;4.362;2023-02-22T02:56:13;44.23;;;25.80;;
14516;SDS011;7344;50.864;4.362;2023-02-22T02:58:51;43.33;;;25.30;;
14516;SDS011;7344;50.864;4.362;2023-02-22T03:04:17;44.57;;;25.87;;
14516;SDS011;7344;50.864;4.362;2023-02-22T03:15:15;43.27;;;25.27;;
14516;SDS011;7344;50.864;4.362;2023-02-22T03:17:58;40.27;;;24.27;;
14516;SDS011;7344;50.864;4.362;2023-02-22T03:23:44;41.03;;;24.10;;
14516;SDS011;7344;50.864;4.362;2023-02-22T03:26:16;46.00;;;25.20;;
14516;SDS011;7344;50.864;4.362;2023-02-22T03:28:52;40.53;;;24.50;;
14516;SDS011;7344;50.864;4.362;2023-02-22T03:31:28;40.87;;;24.03;;
14516;SDS011;7344;50.864;4.362;2023-02-22T03:34:02;38.90;;;24.27;;
14516;SDS011;7344;50.864;4.362;2023-02-22T03:36:33;41.57;;;24.37;;
14516;SDS011;7344;50.864;4.362;2023-02-22T03:39:08;39.93;;;24.30;;
14516;SDS011;7344;50.864;4.362;2023-02-22T03:41:39;39.83;;;23.57;;
14516;SDS011;7344;50.864;4.362;2023-02-22T03:44:13;36.67;;;22.57;;
14516;SDS011;7344;50.864;4.362;2023-02-22T03:46:42;40.07;;;24.60;;
14516;SDS011;7344;50.864;4.362;2023-02-22T03:49:11;38.23;;;23.17;;
14516;SDS011;7344;50.864;4.362;2023-02-22T03:51:44;36.97;;;22.77;;
14516;SDS011;7344;50.864;4.362;2023-02-22T03:54:10;34.60;;;21.83;;
14516;SDS011;7344;50.864;4.362;2023-02-22T03:56:44;37.67;;;22.07;;
14516;SDS011;7344;50.864;4.362;2023-02-22T03:59:20;35.80;;;22.50;;
14516;SDS011;7344;50.864;4.362;2023-02-22T04:01:51;33.13;;;22.03;;
14516;SDS011;7344;50.864;4.362;2023-02-22T04:04:18;31.47;;;20.63;;
14516;SDS011;7344;50.864;4.362;2023-02-22T04:06:45;30.37;;;20.40;;
14516;SDS011;7344;50.864;4.362;2023-02-22T04:09:12;35.70;;;20.50;;
14516;SDS011;7344;50.864;4.362;2023-02-22T04:11:38;28.93;;;19.83;;
14516;SDS011;7344;50.864;4.362;2023-02-22T04:14:04;32.00;;;20.13;;
14516;SDS011;7344;50.864;4.362;2023-02-22T04:16:30;31.37;;;20.57;;
14516;SDS011;7344;50.864;4.362;2023-02-22T04:18:55;33.67;;;19.47;;
14516;SDS011;7344;50.864;4.362;2023-02-22T04:21:21;34.27;;;20.43;;
14516;SDS011;7344;50.864;4.362;2023-02-22T04:23:46;28.77;;;19.20;;
14516;SDS011;7344;50.864;4.362;2023-02-22T04:26:12;29.73;;;19.40;;
14516;SDS011;7344;50.864;4.362;2023-02-22T04:28:38;29.33;;;19.50;;
14516;SDS011;7344;50.864;4.362;2023-02-22T04:31:06;30.00;;;19.97;;
14516;SDS011;7344;50.864;4.362;2023-02-22T04:33:32;30.47;;;19.47;;
14516;SDS011;7344;50.864;4.362;2023-02-22T04:35:58;29.73;;;20.00;;
14516;SDS011;7344;50.864;4.362;2023-02-22T04:38:24;32.40;;;20.03;;
14516;SDS011;7344;50.864;4.362;2023-02-22T04:40:50;29.80;;;19.57;;
14516;SDS011;7344;50.864;4.362;2023-02-22T04:43:17;31.00;;;19.77;;
14516;SDS011;7344;50.864;4.362;2023-02-22T04:45:43;29.43;;;19.70;;
14516;SDS011;7344;50.864;4.362;2023-02-22T04:48:08;29.57;;;19.60;;
14516;SDS011;7344;50.864;4.362;2023-02-22T04:50:34;29.13;;;19.20;;
14516;SDS011;7344;50.864;4.362;2023-02-22T04:53:00;31.67;;;20.37;;
14516;SDS011;7344;50.864;4.362;2023-02-22T04:55:26;26.93;;;18.30;;
14516;SDS011;7344;50.864;4.362;2023-02-22T04:57:55;27.63;;;17.73;;
14516;SDS011;7344;50.864;4.362;2023-02-22T05:00:21;29.27;;;18.40;;
14516;SDS011;7344;50.864;4.362;2023-02-22T05:02:48;24.17;;;16.90;;
14516;SDS011;7344;50.864;4.362;2023-02-22T05:05:15;26.57;;;17.50;;
14516;SDS011;7344;50.864;4.362;2023-02-22T05:07:42;23.77;;;16.30;;
14516;SDS011;7344;50.864;4.362;2023-02-22T05:10:09;26.70;;;17.73;;
14516;SDS011;7344;50.864;4.362;2023-02-22T05:12:35;27.53;;;16.63;;
14516;SDS011;7344;50.864;4.362;2023-02-22T05:15:01;25.07;;;16.23;;
14516;SDS011;7344;50.864;4.362;2023-02-22T05:17:28;22.30;;;15.47;;
14516;SDS011;7344;50.864;4.362;2023-02-22T05:19:54;23.47;;;16.40;;
14516;SDS011;7344;50.864;4.362;2023-02-22T05:22:19;22.00;;;16.27;;
14516;SDS011;7344;50.864;4.362;2023-02-22T05:24:45;20.30;;;15.17;;
14516;SDS011;7344;50.864;4.362;2023-02-22T05:27:10;23.40;;;15.23;;
14516;SDS011;7344;50.864;4.362;2023-02-22T05:29:36;25.27;;;16.07;;
14516;SDS011;7344;50.864;4.362;2023-02-22T05:32:05;24.67;;;14.80;;
14516;SDS011;7344;50.864;4.362;2023-02-22T05:34:31;22.63;;;15.30;;
14516;SDS011;7344;50.864;4.362;2023-02-22T05:37:00;22.93;;;15.13;;
14516;SDS011;7344;50.864;4.362;2023-02-22T05:39:27;22.83;;;14.93;;
14516;SDS011;7344;50.864;4.362;2023-02-22T05:41:53;24.03;;;15.47;;
14516;SDS011;7344;50.864;4.362;2023-02-22T05:44:18;21.20;;;15.43;;
14516;SDS011;7344;50.864;4.362;2023-02-22T05:46:44;21.27;;;14.40;;
14516;SDS011;7344;50.864;4.362;2023-02-22T05:49:16;23.87;;;15.43;;
14516;SDS011;7344;50.864;4.362;2023-02-22T05:51:44;20.40;;;14.90;;
14516;SDS011;7344;50.864;4.362;2023-02-22T05:54:09;19.70;;;14.63;;
14516;SDS011;7344;50.864;4.362;2023-02-22T05:56:35;21.43;;;14.83;;
14516;SDS011;7344;50.864;4.362;2023-02-22T05:59:01;21.20;;;15.10;;
14516;SDS011;7344;50.864;4.362;2023-02-22T06:01:26;22.03;;;14.43;;
14516;SDS011;7344;50.864;4.362;2023-02-22T06:03:52;24.17;;;15.07;;
14516;SDS011;7344;50.864;4.362;2023-02-22T06:06:24;18.57;;;14.17;;
14516;SDS011;7344;50.864;4.362;2023-02-22T06:08:49;25.60;;;16.23;;
14516;SDS011;7344;50.864;4.362;2023-02-22T06:11:15;18.30;;;13.67;;
14516;SDS011;7344;50.864;4.362;2023-02-22T06:13:41;24.93;;;15.17;;
14516;SDS011;7344;50.864;4.362;2023-02-22T06:16:06;20.60;;;14.60;;
14516;SDS011;7344;50.864;4.362;2023-02-22T06:18:32;19.40;;;14.37;;
14516;SDS011;7344;50.864;4.362;2023-02-22T06:20:58;21.03;;;14.70;;
14516;SDS011;7344;50.864;4.362;2023-02-22T06:23:24;24.27;;;14.80;;
14516;SDS011;7344;50.864;4.362;2023-02-22T06:25:50;22.77;;;14.73;;
14516;SDS011;7344;50.864;4.362;2023-02-22T06:28:16;26.27;;;14.10;;
14516;SDS011;7344;50.864;4.362;2023-02-22T06:30:41;25.27;;;15.53;;
14516;SDS011;7344;50.864;4.362;2023-02-22T06:33:08;20.43;;;12.90;;
14516;SDS011;7344;50.864;4.362;2023-02-22T06:35:34;44.13;;;16.93;;
14516;SDS011;7344;50.864;4.362;2023-02-22T06:38:02;89.53;;;21.37;;
14516;SDS011;7344;50.864;4.362;2023-02-22T06:40:28;51.67;;;17.07;;
14516;SDS011;7344;50.864;4.362;2023-02-22T06:42:54;39.03;;;17.20;;
14516;SDS011;7344;50.864;4.362;2023-02-22T06:45:20;28.37;;;16.40;;
14516;SDS011;7344;50.864;4.362;2023-02-22T06:47:46;34.07;;;15.63;;
14516;SDS011;7344;50.864;4.362;2023-02-22T06:50:21;22.90;;;15.20;;
14516;SDS011;7344;50.864;4.362;2023-02-22T06:52:48;25.20;;;15.00;;
14516;SDS011;7344;50.864;4.362;2023-02-22T06:55:18;21.67;;;15.00;;
14516;SDS011;7344;50.864;4.362;2023-02-22T06:57:49;21.47;;;13.67;;
14516;SDS011;7344;50.864;4.362;2023-02-22T07:00:15;21.17;;;14.10;;
14516;SDS011;7344;50.864;4.362;2023-02-22T07:02:42;23.17;;;14.93;;
14516;SDS011;7344;50.864;4.362;2023-02-22T07:05:16;21.70;;;15.00;;
14516;SDS011;7344;50.864;4.362;2023-02-22T07:07:43;23.93;;;14.37;;
14516;SDS011;7344;50.864;4.362;2023-02-22T07:10:18;22.13;;;13.23;;
14516;SDS011;7344;50.864;4.362;2023-02-22T07:12:51;22.63;;;14.50;;
14516;SDS011;7344;50.864;4.362;2023-02-22T07:15:17;26.07;;;13.73;;
14516;SDS011;7344;50.864;4.362;2023-02-22T07:17:47;29.57;;;14.57;;
14516;SDS011;7344;50.864;4.362;2023-02-22T07:20:13;28.70;;;17.57;;
14516;SDS011;7344;50.864;4.362;2023-02-22T07:22:43;33.93;;;18.73;;
14516;SDS011;7344;50.864;4.362;2023-02-22T07:25:08;32.20;;;18.90;;
14516;SDS011;7344;50.864;4.362;2023-02-22T07:27:35;29.13;;;19.60;;
14516;SDS011;7344;50.864;4.362;2023-02-22T07:30:03;35.03;;;17.60;;
14516;SDS011;7344;50.864;4.362;2023-02-22T07:32:30;28.73;;;14.53;;
14516;SDS011;7344;50.864;4.362;2023-02-22T07:34:56;26.27;;;14.47;;
14516;SDS011;7344;50.864;4.362;2023-02-22T07:37:21;29.10;;;14.37;;
14516;SDS011;7344;50.864;4.362;2023-02-22T07:39:47;30.50;;;14.40;;
14516;SDS011;7344;50.864;4.362;2023-02-22T07:42:12;26.93;;;15.00;;
14516;SDS011;7344;50.864;4.362;2023-02-22T07:44:38;20.17;;;14.00;;
14516;SDS011;7344;50.864;4.362;2023-02-22T07:47:04;29.63;;;15.37;;
14516;SDS011;7344;50.864;4.362;2023-02-22T07:49:29;18.33;;;13.13;;
14516;SDS011;7344;50.864;4.362;2023-02-22T07:51:55;24.00;;;13.83;;
14516;SDS011;7344;50.864;4.362;2023-02-22T07:54:20;29.30;;;14.93;;
14516;SDS011;7344;50.864;4.362;2023-02-22T07:56:46;21.90;;;13.77;;
14516;SDS011;7344;50.864;4.362;2023-02-22T07:59:13;23.23;;;13.17;;
14516;SDS011;7344;50.864;4.362;2023-02-22T08:01:39;24.03;;;13.50;;
14516;SDS011;7344;50.864;4.362;2023-02-22T08:04:05;29.27;;;13.87;;
14516;SDS011;7344;50.864;4.362;2023-02-22T08:06:31;24.40;;;14.00;;
14516;SDS011;7344;50.864;4.362;2023-02-22T08:08:57;29.57;;;13.97;;
14516;SDS011;7344;50.864;4.362;2023-02-22T08:11:23;34.00;;;14.57;;
14516;SDS011;7344;50.864;4.362;2023-02-22T08:13:49;20.00;;;12.93;;
14516;SDS011;7344;50.864;4.362;2023-02-22T08:16:15;32.30;;;14.60;;
14516;SDS011;7344;50.864;4.362;2023-02-22T08:18:41;29.03;;;14.30;;
14516;SDS011;7344;50.864;4.362;2023-02-22T08:21:06;25.83;;;14.30;;
14516;SDS011;7344;50.864;4.362;2023-02-22T08:23:32;29.87;;;14.60;;
14516;SDS011;7344;50.864;4.362;2023-02-22T08:26:08;26.67;;;13.93;;
14516;SDS011;7344;50.864;4.362;2023-02-22T08:28:41;30.50;;;14.30;;
14516;SDS011;7344;50.864;4.362;2023-02-22T08:31:07;30.97;;;14.93;;
14516;SDS011;7344;50.864;4.362;2023-02-22T08:33:32;26.97;;;14.57;;
14516;SDS011;7344;50.864;4.362;2023-02-22T08:36:02;35.07;;;14.83;;
14516;SDS011;7344;50.864;4.362;2023-02-22T08:38:28;36.63;;;15.63;;
14516;SDS011;7344;50.864;4.362;2023-02-22T08:40:55;21.07;;;14.07;;
14516;SDS011;7344;50.864;4.362;2023-02-22T08:43:21;27.23;;;13.70;;
14516;SDS011;7344;50.864;4.362;2023-02-22T08:45:47;19.53;;;12.00;;
14516;SDS011;7344;50.864;4.362;2023-02-22T08:48:13;16.20;;;11.90;;
14516;SDS011;7344;50.864;4.362;2023-02-22T08:50:40;21.67;;;12.60;;
14516;SDS011;7344;50.864;4.362;2023-02-22T08:53:06;22.23;;;12.37;;
14516;SDS011;7344;50.864;4.362;2023-02-22T08:55:35;18.93;;;12.00;;
14516;SDS011;7344;50.864;4.362;2023-02-22T08:58:02;19.13;;;12.10;;
14516;SDS011;7344;50.864;4.362;2023-02-22T09:00:34;22.10;;;12.10;;
14516;SDS011;7344;50.864;4.362;2023-02-22T09:03:02;23.50;;;12.57;;
14516;SDS011;7344;50.864;4.362;2023-02-22T09:05:31;18.30;;;12.03;;
14516;SDS011;7344;50.864;4.362;2023-02-22T09:07:57;20.20;;;11.97;;
14516;SDS011;7344;50.864;4.362;2023-02-22T09:10:25;21.07;;;12.50;;
14516;SDS011;7344;50.864;4.362;2023-02-22T09:12:53;25.07;;;13.30;;
14516;SDS011;7344;50.864;4.362;2023-02-22T09:15:19;22.60;;;13.13;;
14516;SDS011;7344;50.864;4.362;2023-02-22T09:17:45;19.40;;;12.60;;
14516;SDS011;7344;50.864;4.362;2023-02-22T09:20:11;19.73;;;13.53;;
14516;SDS011;7344;50.864;4.362;2023-02-22T09:22:38;16.83;;;12.97;;
14516;SDS011;7344;50.864;4.362;2023-02-22T09:25:04;18.17;;;13.83;;
14516;SDS011;7344;50.864;4.362;2023-02-22T09:27:30;17.20;;;13.63;;
14516;SDS011;7344;50.864;4.362;2023-02-22T09:29:56;17.93;;;13.23;;
14516;SDS011;7344;50.864;4.362;2023-02-22T09:32:22;17.20;;;13.17;;
14516;SDS011;7344;50.864;4.362;2023-02-22T09:34:51;19.93;;;13.77;;
14516;SDS011;7344;50.864;4.362;2023-02-22T09:37:18;16.80;;;12.37;;
14516;SDS011;7344;50.864;4.362;2023-02-22T09:39:43;19.53;;;13.97;;
14516;SDS011;7344;50.864;4.362;2023-02-22T09:42:30;19.23;;;13.30;;
14516;SDS011;7344;50.864;4.362;2023-02-22T09:45:09;19.67;;;14.77;;
14516;SDS011;7344;50.864;4.362;2023-02-22T09:47:55;19.70;;;14.23;;
14516;SDS011;7344;50.864;4.362;2023-02-22T09:50:25;19.63;;;13.80;;
14516;SDS011;7344;50.864;4.362;2023-02-22T09:53:30;24.00;;;14.30;;
14516;SDS011;7344;50.864;4.362;2023-02-22T09:55:53;20.57;;;14.47;;
14516;SDS011;7344;50.864;4.362;2023-02-22T09:58:25;18.80;;;14.40;;
14516;SDS011;7344;50.864;4.362;2023-02-22T10:01:00;19.03;;;14.00;;
14516;SDS011;7344;50.864;4.362;2023-02-22T10:06:50;25.90;;;16.23;;
14516;SDS011;7344;50.864;4.362;2023-02-22T10:09:29;38.70;;;25.37;;
14516;SDS011;7344;50.864;4.362;2023-02-22T10:11:58;54.37;;;48.37;;
14516;SDS011;7344;50.864;4.362;2023-02-22T10:19:50;30.47;;;20.30;;
14516;SDS011;7344;50.864;4.362;2023-02-22T10:25:44;24.03;;;16.60;;
14516;SDS011;7344;50.864;4.362;2023-02-22T10:28:23;20.70;;;15.97;;
14516;SDS011;7344;50.864;4.362;2023-02-22T10:31:00;20.70;;;16.33;;
14516;SDS011;7344;50.864;4.362;2023-02-22T10:33:41;26.83;;;16.27;;
14516;SDS011;7344;50.864;4.362;2023-02-22T10:36:14;24.33;;;16.70;;
14516;SDS011;7344;50.864;4.362;2023-02-22T10:38:47;23.47;;;17.77;;
14516;SDS011;7344;50.864;4.362;2023-02-22T10:41:43;42.83;;;33.27;;
14516;SDS011;7344;50.864;4.362;2023-02-22T10:44:11;22.13;;;17.17;;
14516;SDS011;7344;50.864;4.362;2023-02-22T10:46:37;28.20;;;16.97;;
14516;SDS011;7344;50.864;4.362;2023-02-22T10:49:05;23.17;;;17.57;;
14516;SDS011;7344;50.864;4.362;2023-02-22T10:51:32;21.23;;;16.17;;
14516;SDS011;7344;50.864;4.362;2023-02-22T10:56:56;26.20;;;16.73;;
14516;SDS011;7344;50.864;4.362;2023-02-22T10:59:34;20.77;;;16.50;;
14516;SDS011;7344;50.864;4.362;2023-02-22T11:02:18;25.27;;;17.67;;
14516;SDS011;7344;50.864;4.362;2023-02-22T11:04:51;23.57;;;16.40;;
14516;SDS011;7344;50.864;4.362;2023-02-22T11:09:50;24.23;;;18.13;;
14516;SDS011;7344;50.864;4.362;2023-02-22T11:12:19;22.23;;;17.83;;
14516;SDS011;7344;50.864;4.362;2023-02-22T11:14:56;21.10;;;17.77;;
14516;SDS011;7344;50.864;4.362;2023-02-22T11:17:40;32.43;;;18.20;;
14516;SDS011;7344;50.864;4.362;2023-02-22T11:20:16;22.23;;;18.40;;
14516;SDS011;7344;50.864;4.362;2023-02-22T11:22:54;22.73;;;18.17;;
14516;SDS011;7344;50.864;4.362;2023-02-22T11:25:27;25.60;;;18.17;;
14516;SDS011;7344;50.864;4.362;2023-02-22T11:30:54;28.87;;;19.80;;
14516;SDS011;7344;50.864;4.362;2023-02-22T11:33:22;27.00;;;19.83;;
14516;SDS011;7344;50.864;4.362;2023-02-22T11:35:59;32.73;;;26.47;;
14516;SDS011;7344;50.864;4.362;2023-02-22T11:41:14;33.50;;;22.47;;
14516;SDS011;7344;50.864;4.362;2023-02-22T11:43:42;27.10;;;20.70;;
14516;SDS011;7344;50.864;4.362;2023-02-22T11:48:46;28.83;;;22.97;;
14516;SDS011;7344;50.864;4.362;2023-02-22T11:57:03;27.53;;;23.37;;
14516;SDS011;7344;50.864;4.362;2023-02-22T12:03:06;28.50;;;23.47;;
14516;SDS011;7344;50.864;4.362;2023-02-22T12:19:32;29.77;;;23.57;;
14516;SDS011;7344;50.864;4.362;2023-02-22T12:22:03;30.90;;;24.50;;
14516;SDS011;7344;50.864;4.362;2023-02-22T12:24:47;30.07;;;25.60;;
14516;SDS011;7344;50.864;4.362;2023-02-22T12:29:53;34.43;;;27.10;;
14516;SDS011;7344;50.864;4.362;2023-02-22T12:37:59;35.30;;;28.00;;
14516;SDS011;7344;50.864;4.362;2023-02-22T12:43:47;81.00;;;72.50;;
14516;SDS011;7344;50.864;4.362;2023-02-22T12:46:42;41.17;;;30.67;;
14516;SDS011;7344;50.864;4.362;2023-02-22T12:49:14;40.33;;;29.47;;
14516;SDS011;7344;50.864;4.362;2023-02-22T12:52:06;38.37;;;28.30;;
14516;SDS011;7344;50.864;4.362;2023-02-22T12:54:45;35.23;;;28.23;;
14516;SDS011;7344;50.864;4.362;2023-02-22T13:00:19;33.93;;;27.50;;
14516;SDS011;7344;50.864;4.362;2023-02-22T13:02:57;35.23;;;27.47;;
14516;SDS011;7344;50.864;4.362;2023-02-22T13:05:32;35.70;;;27.60;;
14516;SDS011;7344;50.864;4.362;2023-02-22T13:08:09;32.17;;;27.30;;
14516;SDS011;7344;50.864;4.362;2023-02-22T13:22:05;32.07;;;25.73;;
14516;SDS011;7344;50.864;4.362;2023-02-22T13:27:14;32.90;;;25.57;;
14516;SDS011;7344;50.864;4.362;2023-02-22T13:29:48;30.77;;;24.63;;
14516;SDS011;7344;50.864;4.362;2023-02-22T13:37:53;31.63;;;26.67;;
14516;SDS011;7344;50.864;4.362;2023-02-22T13:46:26;32.97;;;27.57;;
14516;SDS011;7344;50.864;4.362;2023-02-22T13:54:05;36.40;;;28.53;;
14516;SDS011;7344;50.864;4.362;2023-02-22T13:56:36;36.17;;;28.83;;
14516;SDS011;7344;50.864;4.362;2023-02-22T13:59:20;39.53;;;30.30;;
14516;SDS011;7344;50.864;4.362;2023-02-22T14:02:00;36.23;;;28.43;;
14516;SDS011;7344;50.864;4.362;2023-02-22T14:04:36;39.40;;;29.87;;
14516;SDS011;7344;50.864;4.362;2023-02-22T14:09:50;46.70;;;34.37;;
14516;SDS011;7344;50.864;4.362;2023-02-22T14:17:37;41.93;;;31.43;;
14516;SDS011;7344;50.864;4.362;2023-02-22T14:22:43;44.90;;;36.07;;
14516;SDS011;7344;50.864;4.362;2023-02-22T14:31:10;44.13;;;35.60;;
14516;SDS011;7344;50.864;4.362;2023-02-22T14:33:51;46.73;;;35.13;;
14516;SDS011;7344;50.864;4.362;2023-02-22T14:36:21;46.33;;;35.67;;
14516;SDS011;7344;50.864;4.362;2023-02-22T14:39:15;46.07;;;35.43;;
14516;SDS011;7344;50.864;4.362;2023-02-22T14:41:52;43.03;;;34.47;;
14516;SDS011;7344;50.864;4.362;2023-02-22T14:44:26;45.27;;;34.63;;
14516;SDS011;7344;50.864;4.362;2023-02-22T14:47:03;48.70;;;35.73;;
14516;SDS011;7344;50.864;4.362;2023-02-22T14:49:34;46.43;;;35.80;;
14516;SDS011;7344;50.864;4.362;2023-02-22T14:52:04;48.13;;;35.90;;
14516;SDS011;7344;50.864;4.362;2023-02-22T14:54:57;48.80;;;35.47;;
14516;SDS011;7344;50.864;4.362;2023-02-22T14:57:39;49.60;;;36.73;;
14516;SDS011;7344;50.864;4.362;2023-02-22T15:00:40;50.47;;;37.20;;
14516;SDS011;7344;50.864;4.362;2023-02-22T15:06:06;47.83;;;36.00;;
14516;SDS011;7344;50.864;4.362;2023-02-22T15:08:40;52.53;;;37.13;;
14516;SDS011;7344;50.864;4.362;2023-02-22T15:11:20;49.70;;;35.87;;
14516;SDS011;7344;50.864;4.362;2023-02-22T15:13:51;49.67;;;36.90;;
14516;SDS011;7344;50.864;4.362;2023-02-22T15:16:17;54.87;;;37.33;;
14516;SDS011;7344;50.864;4.362;2023-02-22T15:18:46;45.57;;;34.63;;
14516;SDS011;7344;50.864;4.362;2023-02-22T15:21:18;52.47;;;37.67;;
14516;SDS011;7344;50.864;4.362;2023-02-22T15:23:47;51.83;;;35.97;;
14516;SDS011;7344;50.864;4.362;2023-02-22T15:28:46;49.57;;;37.90;;
14516;SDS011;7344;50.864;4.362;2023-02-22T15:31:51;55.97;;;39.47;;
14516;SDS011;7344;50.864;4.362;2023-02-22T15:36:43;46.73;;;34.40;;
14516;SDS011;7344;50.864;4.362;2023-02-22T15:39:17;52.97;;;36.80;;
14516;SDS011;7344;50.864;4.362;2023-02-22T15:41:59;49.10;;;35.57;;
14516;SDS011;7344;50.864;4.362;2023-02-22T15:44:47;55.53;;;38.30;;
14516;SDS011;7344;50.864;4.362;2023-02-22T15:47:19;55.73;;;37.20;;
14516;SDS011;7344;50.864;4.362;2023-02-22T15:55:19;49.23;;;35.87;;
14516;SDS011;7344;50.864;4.362;2023-02-22T15:57:47;55.83;;;36.07;;
14516;SDS011;7344;50.864;4.362;2023-02-22T16:00:48;56.97;;;36.83;;
14516;SDS011;7344;50.864;4.362;2023-02-22T16:03:08;55.87;;;36.33;;
14516;SDS011;7344;50.864;4.362;2023-02-22T16:05:47;56.13;;;35.50;;
14516;SDS011;7344;50.864;4.362;2023-02-22T16:08:26;51.43;;;35.33;;
14516;SDS011;7344;50.864;4.362;2023-02-22T16:11:13;57.43;;;35.07;;
14516;SDS011;7344;50.864;4.362;2023-02-22T16:13:50;51.93;;;34.83;;
14516;SDS011;7344;50.864;4.362;2023-02-22T16:18:49;55.40;;;35.33;;
14516;SDS011;7344;50.864;4.362;2023-02-22T16:21:19;56.93;;;36.93;;
14516;SDS011;7344;50.864;4.362;2023-02-22T16:28:52;56.43;;;36.90;;
14516;SDS011;7344;50.864;4.362;2023-02-22T16:31:20;61.83;;;38.37;;
14516;SDS011;7344;50.864;4.362;2023-02-22T16:33:49;52.40;;;35.80;;
14516;SDS011;7344;50.864;4.362;2023-02-22T16:36:15;60.60;;;37.83;;
14516;SDS011;7344;50.864;4.362;2023-02-22T16:38:43;62.63;;;37.60;;
14516;SDS011;7344;50.864;4.362;2023-02-22T16:41:12;69.27;;;38.03;;
14516;SDS011;7344;50.864;4.362;2023-02-22T16:43:43;60.50;;;37.47;;
14516;SDS011;7344;50.864;4.362;2023-02-22T16:46:15;63.27;;;39.47;;
14516;SDS011;7344;50.864;4.362;2023-02-22T16:48:42;59.80;;;38.23;;
14516;SDS011;7344;50.864;4.362;2023-02-22T16:51:17;65.50;;;39.33;;
14516;SDS011;7344;50.864;4.362;2023-02-22T16:53:45;64.07;;;39.60;;
14516;SDS011;7344;50.864;4.362;2023-02-22T16:56:13;63.40;;;39.80;;
14516;SDS011;7344;50.864;4.362;2023-02-22T16:58:40;63.70;;;39.57;;
14516;SDS011;7344;50.864;4.362;2023-02-22T17:01:07;64.10;;;39.80;;
14516;SDS011;7344;50.864;4.362;2023-02-22T17:03:33;67.50;;;42.53;;
14516;SDS011;7344;50.864;4.362;2023-02-22T17:05:59;70.00;;;40.33;;
14516;SDS011;7344;50.864;4.362;2023-02-22T17:08:25;63.13;;;39.67;;
14516;SDS011;7344;50.864;4.362;2023-02-22T17:10:51;70.37;;;41.63;;
14516;SDS011;7344;50.864;4.362;2023-02-22T17:13:21;67.97;;;39.07;;
14516;SDS011;7344;50.864;4.362;2023-02-22T17:15:50;63.50;;;39.33;;
14516;SDS011;7344;50.864;4.362;2023-02-22T17:18:17;65.77;;;39.83;;
14516;SDS011;7344;50.864;4.362;2023-02-22T17:20:46;70.00;;;40.37;;
14516;SDS011;7344;50.864;4.362;2023-02-22T17:23:16;70.57;;;42.50;;
14516;SDS011;7344;50.864;4.362;2023-02-22T17:25:52;72.80;;;48.63;;
14516;SDS011;7344;50.864;4.362;2023-02-22T17:28:20;68.07;;;41.63;;
14516;SDS011;7344;50.864;4.362;2023-02-22T17:30:49;73.43;;;42.03;;
14516;SDS011;7344;50.864;4.362;2023-02-22T17:33:16;63.67;;;40.63;;
14516;SDS011;7344;50.864;4.362;2023-02-22T17:36:00;69.87;;;41.67;;
14516;SDS011;7344;50.864;4.362;2023-02-22T17:38:27;78.33;;;48.53;;
14516;SDS011;7344;50.864;4.362;2023-02-22T17:40:54;69.27;;;41.13;;
14516;SDS011;7344;50.864;4.362;2023-02-22T17:43:21;73.63;;;42.03;;
14516;SDS011;7344;50.864;4.362;2023-02-22T17:45:47;72.90;;;42.40;;